Terminal Aerodrome Forecast
Issued by NWS

Home | Current Version | Previous Version | Text Only | Print | Product List | Glossary On
Versions: 1 2 3 4 5 6 7 8 9 10 11 12 13 14 15 16 17 18 19 20 21
000
FTUS41 KBOX 291120
TAFFMH
TAF
KFMH 291120Z 2912/3012 28005KT P6SM SCT250
     FM291700 28005KT P6SM BKN090
     FM292000 22006KT P6SM BKN250
     FM300300 21005KT 3SM BR VCSH BKN008
     FM300900 22006KT 1SM -SHRA BR OVC008
     FM301100 21007KT 1SM +SHRA BR OVC003=

USA.gov is the U.S. government's official web portal to all federal, state and local government web resources and services.